Time;durP1;ratioP1;P1;durP2;ratioP2;P2;SDS_P1;SDS_P2;PMS_P1;PMS_P2;Temp;Humidity;BMP_temperature;BMP_pressure;BME280_temperature;BME280_humidity;BME280_pressure;Samples;Min_cycle;Max_cycle;Signal;HPM_P1;HPM_P2
2020/12/06 00:02:19;;;;;;;14.02;7.10;;;6.90;99.90;;;;;;5134411;27;20015;-70
2020/12/06 00:04:45;;;;;;;12.50;7.45;;;6.90;99.90;;;;;;5134044;27;20383;-69
2020/12/06 00:10:32;;;;;;;13.52;7.32;;;7.00;99.90;;;;;;5134285;27;20042;-69
2020/12/06 00:12:58;;;;;;;11.18;7.50;;;7.00;99.90;;;;;;5133951;27;20459;-69
2020/12/06 00:15:24;;;;;;;11.75;7.20;;;7.00;99.90;;;;;;5134158;27;20027;-69
2020/12/06 00:17:49;;;;;;;12.57;7.13;;;7.00;99.90;;;;;;5134196;27;20030;-69
2020/12/06 00:20:15;;;;;;;11.07;7.30;;;7.00;99.90;;;;;;5134326;27;20035;-69
2020/12/06 00:22:41;;;;;;;11.10;7.18;;;7.00;99.90;;;;;;5134584;27;20026;-69
2020/12/06 00:25:06;;;;;;;10.07;7.10;;;7.10;99.90;;;;;;5134168;27;20171;-69
2020/12/06 00:27:34;;;;;;;11.32;7.10;;;7.10;99.90;;;;;;5133970;27;20047;-69
2020/12/06 00:30:00;;;;;;;13.23;7.45;;;7.10;99.90;;;;;;5133586;27;20034;-70
2020/12/06 00:32:26;;;;;;;12.90;7.32;;;7.10;99.90;;;;;;5133867;27;20367;-69
2020/12/06 00:34:51;;;;;;;11.63;7.57;;;7.10;99.90;;;;;;5133731;27;20106;-70
2020/12/06 00:40:39;;;;;;;12.18;8.15;;;7.10;99.90;;;;;;5133344;27;20521;-67
2020/12/06 00:43:04;;;;;;;12.95;7.50;;;7.10;99.90;;;;;;5133475;27;20027;-68
2020/12/06 00:45:30;;;;;;;12.32;7.93;;;7.10;99.90;;;;;;5133174;27;20050;-68
2020/12/06 00:47:56;;;;;;;10.50;7.90;;;7.10;99.90;;;;;;5133056;27;20051;-68
2020/12/06 00:50:22;;;;;;;14.00;8.55;;;7.00;99.90;;;;;;5133466;27;20071;-68
2020/12/06 00:52:48;;;;;;;12.40;8.43;;;7.00;99.90;;;;;;5133084;27;20071;-69
2020/12/06 00:55:13;;;;;;;12.48;8.30;;;6.90;99.90;;;;;;5133223;27;20431;-69
2020/12/06 00:57:39;;;;;;;13.27;8.45;;;6.80;99.90;;;;;;5133294;27;20023;-68
2020/12/06 01:00:10;;;;;;;13.82;8.10;;;6.80;99.90;;;;;;5133198;27;20042;-71
2020/12/06 01:02:35;;;;;;;13.38;9.13;;;6.70;99.90;;;;;;5132975;27;20102;-70
2020/12/06 01:05:02;;;;;;;12.35;8.85;;;6.60;99.90;;;;;;5133379;27;20055;-69
2020/12/06 01:10:49;;;;;;;15.18;8.98;;;6.50;99.90;;;;;;5137841;27;20030;-68
2020/12/06 01:13:15;;;;;;;16.35;8.90;;;6.50;99.90;;;;;;5137958;27;20386;-69
2020/12/06 01:15:40;;;;;;;14.82;9.23;;;6.40;99.90;;;;;;5137483;27;20143;-71
2020/12/06 01:18:06;;;;;;;12.18;8.77;;;6.40;99.90;;;;;;5137670;27;20031;-69
2020/12/06 01:20:31;;;;;;;11.55;8.48;;;6.40;99.90;;;;;;5137154;27;20034;-69
2020/12/06 01:22:57;;;;;;;13.80;9.05;;;6.40;99.90;;;;;;5137665;27;20023;-68
2020/12/06 01:25:23;;;;;;;13.65;8.25;;;6.30;99.90;;;;;;5137314;27;20023;-69
2020/12/06 01:27:49;;;;;;;15.13;8.95;;;6.30;99.90;;;;;;5137325;27;20095;-69
2020/12/06 01:30:14;;;;;;;13.57;8.93;;;6.30;99.90;;;;;;5137093;27;20482;-69
2020/12/06 01:32:40;;;;;;;13.88;9.27;;;6.30;99.90;;;;;;5137118;27;20027;-69
2020/12/06 01:35:06;;;;;;;14.82;9.55;;;6.30;99.90;;;;;;5136980;27;20043;-69
2020/12/06 01:40:53;;;;;;;16.92;9.32;;;6.30;99.90;;;;;;5136961;27;20046;-70
2020/12/06 01:43:19;;;;;;;13.60;9.15;;;6.20;99.90;;;;;;5136879;27;20023;-68
2020/12/06 01:45:44;;;;;;;11.60;8.90;;;6.20;99.90;;;;;;5136711;27;20083;-67
2020/12/06 01:48:10;;;;;;;16.20;9.82;;;6.30;99.90;;;;;;5136662;27;20074;-68
2020/12/06 01:50:37;;;;;;;13.88;6.70;;;6.30;99.90;;;;;;5136645;27;20031;-69
2020/12/06 01:56:24;;;;;;;13.43;8.00;;;10.70;99.90;;;;;;5136833;27;20030;-72
2020/12/06 01:58:50;;;;;;;13.98;7.55;;;11.30;99.90;;;;;;5136761;27;20113;-71
2020/12/06 02:01:16;;;;;;;14.10;7.80;;;11.70;99.90;;;;;;5135482;27;20062;-71
2020/12/06 02:03:42;;;;;;;9.88;6.18;;;11.90;99.90;;;;;;5136549;27;20228;-71
2020/12/06 02:06:08;;;;;;;12.80;7.93;;;12.00;99.90;;;;;;5136438;27;20459;-70
2020/12/06 02:08:34;;;;;;;8.93;6.50;;;12.20;99.90;;;;;;5136175;27;20037;-70
2020/12/06 02:11:00;;;;;;;12.38;7.75;;;12.40;99.90;;;;;;5136333;27;20023;-72
2020/12/06 02:13:26;;;;;;;8.98;5.65;;;12.40;99.90;;;;;;5136546;27;20030;-72
2020/12/06 02:15:51;;;;;;;10.90;7.15;;;12.50;99.90;;;;;;5136192;27;20024;-73
2020/12/06 02:18:18;;;;;;;10.77;6.93;;;12.60;99.90;;;;;;5135907;27;20103;-73
2020/12/06 02:20:44;;;;;;;7.75;5.47;;;12.70;99.90;;;;;;5135360;27;20165;-73
2020/12/06 02:26:38;;;;;;;11.30;7.28;;;12.70;99.90;;;;;;5136101;27;20030;-72
2020/12/06 02:29:04;;;;;;;9.68;7.20;;;12.80;99.90;;;;;;5136008;27;20470;-71
2020/12/06 02:31:29;;;;;;;11.75;6.97;;;12.80;99.90;;;;;;5135883;27;20023;-71
2020/12/06 02:33:55;;;;;;;8.82;6.07;;;12.90;99.90;;;;;;5136284;27;20084;-73
2020/12/06 02:36:20;;;;;;;9.85;6.75;;;13.00;99.90;;;;;;5135922;27;20020;-71
2020/12/06 02:38:49;;;;;;;8.65;6.32;;;13.00;99.90;;;;;;5135668;27;20489;-71
2020/12/06 02:41:15;;;;;;;10.98;6.95;;;13.00;99.90;;;;;;5135951;27;20046;-72
2020/12/06 02:43:41;;;;;;;10.60;7.03;;;13.00;99.90;;;;;;5135627;27;20023;-70
2020/12/06 02:46:06;;;;;;;9.15;6.45;;;13.00;99.90;;;;;;5135374;27;20038;-71
2020/12/06 02:48:32;;;;;;;9.65;6.57;;;13.00;99.90;;;;;;5135521;27;20078;-70
2020/12/06 02:50:58;;;;;;;7.25;5.85;;;13.00;99.90;;;;;;5135751;27;20098;-71
2020/12/06 02:56:45;;;;;;;8.95;6.18;;;13.00;99.90;;;;;;5135542;27;20034;-72
2020/12/06 02:59:11;;;;;;;8.35;6.30;;;13.00;99.90;;;;;;5135217;27;20031;-71
2020/12/06 03:01:37;;;;;;;9.27;6.85;;;13.00;99.90;;;;;;5135204;27;20500;-72
2020/12/06 03:04:03;;;;;;;11.80;6.80;;;13.10;99.90;;;;;;5135407;27;20070;-74
2020/12/06 03:06:29;;;;;;;10.45;5.88;;;13.10;99.90;;;;;;5134939;27;20031;-73
2020/12/06 03:08:54;;;;;;;11.38;6.90;;;13.10;99.90;;;;;;5135480;27;20470;-72
2020/12/06 03:11:27;;;;;;;9.57;6.72;;;13.10;99.90;;;;;;5135300;27;20471;-73
2020/12/06 03:13:53;;;;;;;12.30;7.40;;;13.10;99.90;;;;;;5134864;27;20015;-73
2020/12/06 03:16:19;;;;;;;8.45;5.43;;;13.20;99.90;;;;;;5134723;27;20029;-73
2020/12/06 03:18:45;;;;;;;10.38;6.00;;;13.20;99.90;;;;;;5134717;27;20023;-74
2020/12/06 03:21:11;;;;;;;9.20;6.47;;;13.20;99.90;;;;;;5134857;27;20035;-72
2020/12/06 03:26:58;;;;;;;9.85;6.55;;;13.20;99.90;;;;;;5134954;27;20531;-75
2020/12/06 03:29:24;;;;;;;9.35;6.35;;;13.20;99.90;;;;;;5134655;27;20023;-74
2020/12/06 03:31:49;;;;;;;9.20;5.78;;;13.20;99.90;;;;;;5134338;27;20027;-74
2020/12/06 03:34:15;;;;;;;11.15;7.35;;;13.20;99.90;;;;;;5134743;27;20073;-71
2020/12/06 03:36:41;;;;;;;9.52;6.30;;;13.20;99.90;;;;;;5134732;27;20364;-74
2020/12/06 03:39:06;;;;;;;9.57;6.93;;;13.20;99.90;;;;;;5134309;27;20023;-74
2020/12/06 03:41:32;;;;;;;10.70;6.47;;;13.20;99.90;;;;;;5134822;27;20045;-74
2020/12/06 03:43:58;;;;;;;10.68;6.68;;;13.10;99.90;;;;;;5134671;27;20023;-73
2020/12/06 03:46:24;;;;;;;8.80;6.90;;;13.10;99.90;;;;;;5134902;27;20049;-73
2020/12/06 03:48:50;;;;;;;12.80;6.95;;;13.10;99.90;;;;;;5134384;27;20122;-72
2020/12/06 03:51:15;;;;;;;17.63;6.25;;;13.00;99.90;;;;;;5134307;27;20033;-72
2020/12/06 03:57:03;;;;;;;9.57;7.18;;;13.00;99.90;;;;;;5134423;27;20497;-72
2020/12/06 03:59:28;;;;;;;8.82;6.28;;;13.00;99.90;;;;;;5134088;27;20029;-72
2020/12/06 04:01:54;;;;;;;13.00;6.93;;;12.90;99.90;;;;;;5134065;27;20114;-75
2020/12/06 04:04:20;;;;;;;9.82;6.80;;;12.90;99.90;;;;;;5133878;27;20015;-73
2020/12/06 04:06:47;;;;;;;10.18;6.85;;;12.90;99.90;;;;;;5134107;27;20110;-73
2020/12/06 04:09:12;;;;;;;11.50;7.32;;;12.90;99.90;;;;;;5134123;27;20029;-73
2020/12/06 04:11:38;;;;;;;11.93;7.35;;;12.90;99.90;;;;;;5134038;27;20458;-72
2020/12/06 04:14:04;;;;;;;12.05;7.28;;;12.80;99.90;;;;;;5134054;27;20509;-73
2020/12/06 04:16:29;;;;;;;9.55;6.70;;;12.80;99.90;;;;;;5133676;27;20053;-73
2020/12/06 04:18:55;;;;;;;8.45;6.45;;;12.80;99.90;;;;;;5133725;27;20058;-73
2020/12/06 04:21:21;;;;;;;8.93;6.35;;;12.80;99.90;;;;;;5133651;27;20027;-71
2020/12/06 04:27:08;;;;;;;8.85;6.90;;;12.70;99.90;;;;;;5133569;27;20050;-73
2020/12/06 04:29:34;;;;;;;9.55;7.18;;;12.70;99.90;;;;;;5134040;27;20073;-73
2020/12/06 04:32:00;;;;;;;10.18;6.63;;;12.70;99.90;;;;;;5133623;27;20519;-70
2020/12/06 04:34:25;;;;;;;12.02;7.70;;;12.70;99.90;;;;;;5133588;27;20106;-73
2020/12/06 04:36:51;;;;;;;10.02;6.63;;;12.70;99.90;;;;;;5133660;27;20053;-73
2020/12/06 04:39:16;;;;;;;9.55;6.40;;;12.70;99.90;;;;;;5133501;27;20031;-71
2020/12/06 04:41:42;;;;;;;9.50;7.50;;;12.70;99.90;;;;;;5132887;27;20023;-72
2020/12/06 04:44:08;;;;;;;8.55;5.97;;;12.70;99.90;;;;;;5133643;27;20027;-71
2020/12/06 04:46:37;;;;;;;10.82;7.45;;;12.60;99.90;;;;;;5133738;27;20023;-71
2020/12/06 04:49:05;;;;;;;10.20;6.60;;;12.60;99.90;;;;;;5133282;27;20118;-70
2020/12/06 04:51:43;;;;;;;10.10;6.75;;;12.60;99.90;;;;;;5133581;27;20027;-72
2020/12/06 04:57:30;;;;;;;10.80;7.45;;;12.60;99.90;;;;;;5133568;28;20235;-73
2020/12/06 05:00:09;;;;;;;9.02;6.68;;;12.60;99.90;;;;;;5133177;27;20066;-73
2020/12/06 05:02:38;;;;;;;13.52;7.40;;;12.60;99.90;;;;;;5133032;27;20071;-72
2020/12/06 05:05:05;;;;;;;14.02;6.90;;;12.60;99.90;;;;;;5133280;27;20038;-72
2020/12/06 05:07:32;;;;;;;11.68;7.68;;;12.60;99.90;;;;;;5133337;27;20382;-74
2020/12/06 05:09:57;;;;;;;7.82;6.10;;;12.50;99.90;;;;;;5133545;27;20043;-74
2020/12/06 05:12:24;;;;;;;11.57;6.93;;;12.50;99.90;;;;;;5133145;27;20105;-74
2020/12/06 05:14:50;;;;;;;9.38;6.57;;;12.60;99.90;;;;;;5133268;27;20106;-75
2020/12/06 05:17:16;;;;;;;9.88;6.63;;;12.60;99.90;;;;;;5132971;27;20023;-74
2020/12/06 05:19:42;;;;;;;8.77;6.72;;;12.50;99.90;;;;;;5132893;27;20025;-72
2020/12/06 05:22:07;;;;;;;10.02;6.80;;;12.50;99.90;;;;;;5132706;27;20031;-71
2020/12/06 05:24:36;;;;;;;12.13;7.85;;;12.50;99.90;;;;;;5132942;27;20125;-73
2020/12/06 05:27:02;;;;;;;11.15;7.18;;;12.40;99.90;;;;;;5133298;27;20043;-72
2020/12/06 05:29:29;;;;;;;10.70;7.85;;;12.40;99.90;;;;;;5133364;27;20031;-72
2020/12/06 05:31:56;;;;;;;10.30;7.30;;;12.30;99.90;;;;;;5133266;27;20034;-72
2020/12/06 05:34:22;;;;;;;9.02;7.00;;;12.30;99.90;;;;;;5133029;27;20483;-70
2020/12/06 05:36:48;;;;;;;10.95;7.13;;;12.30;99.90;;;;;;5133152;27;20039;-72
2020/12/06 05:42:49;;;;;;;17.10;7.95;;;12.40;99.90;;;;;;5133014;28;20047;-72
2020/12/06 05:45:19;;;;;;;10.10;7.15;;;12.30;99.90;;;;;;5132795;27;20110;-74
2020/12/06 05:47:47;;;;;;;9.30;7.00;;;12.30;99.90;;;;;;5132912;27;20043;-73
2020/12/06 05:50:12;;;;;;;10.43;6.90;;;12.30;99.90;;;;;;5132849;27;20467;-71
2020/12/06 05:52:38;;;;;;;10.73;7.82;;;12.20;99.90;;;;;;5132636;27;20030;-72
2020/12/06 05:55:04;;;;;;;10.73;8.20;;;12.30;99.90;;;;;;5136524;27;20498;-72
2020/12/06 05:57:31;;;;;;;12.38;8.00;;;12.20;99.90;;;;;;5136737;27;20440;-71
2020/12/06 05:59:59;;;;;;;10.55;7.47;;;12.20;99.90;;;;;;5136443;27;20084;-73
2020/12/06 06:02:25;;;;;;;9.50;6.75;;;12.10;99.90;;;;;;5136161;27;20072;-73
2020/12/06 06:04:56;;;;;;;10.70;6.95;;;12.30;99.90;;;;;;5136714;27;20023;-73
2020/12/06 06:07:23;;;;;;;9.65;6.57;;;12.30;99.90;;;;;;5136317;27;20024;-73
2020/12/06 06:09:57;;;;;;;12.70;7.00;;;12.30;99.90;;;;;;5136143;27;20081;-72
2020/12/06 06:12:34;;;;;;;9.98;7.75;;;12.30;99.90;;;;;;5136225;27;20075;-72
2020/12/06 06:15:03;;;;;;;10.25;7.05;;;12.30;99.90;;;;;;5136109;27;20023;-73
2020/12/06 06:17:32;;;;;;;10.85;7.63;;;12.30;99.90;;;;;;5135992;27;20031;-72
2020/12/06 06:19:58;;;;;;;10.88;7.05;;;12.30;99.90;;;;;;5136246;27;20416;-71
2020/12/06 06:22:40;;;;;;;12.15;7.55;;;12.20;99.90;;;;;;5136158;27;20023;-72
2020/12/06 06:25:06;;;;;;;9.23;6.45;;;12.30;99.90;;;;;;5136007;27;20023;-73
2020/12/06 06:27:40;;;;;;;12.60;7.22;;;12.30;99.90;;;;;;5136172;27;20031;-73
2020/12/06 06:30:07;;;;;;;12.00;5.88;;;12.30;99.90;;;;;;5135774;27;20394;-71
2020/12/06 06:32:34;;;;;;;13.88;6.60;;;12.40;99.90;;;;;;5135848;27;20023;-72
2020/12/06 06:35:01;;;;;;;8.55;5.10;;;12.40;99.90;;;;;;5135632;27;20054;-74
2020/12/06 06:37:31;;;;;;;9.60;7.68;;;12.60;99.90;;;;;;5135681;27;20027;-74
2020/12/06 06:40:03;;;;;;;10.98;8.27;;;12.50;99.90;;;;;;5135832;27;20038;-72
2020/12/06 06:42:29;;;;;;;10.45;6.72;;;12.50;99.90;;;;;;5135821;27;20031;-71
2020/12/06 06:45:09;;;;;;;10.13;7.88;;;12.40;99.90;;;;;;5135522;27;20531;-74
2020/12/06 06:47:37;;;;;;;10.25;7.43;;;12.30;99.90;;;;;;5135582;27;20020;-72
2020/12/06 06:50:04;;;;;;;10.63;8.00;;;12.40;99.90;;;;;;5135454;27;20035;-75
2020/12/06 06:52:30;;;;;;;11.45;7.88;;;12.30;99.90;;;;;;5135571;27;20015;-74
2020/12/06 06:58:23;;;;;;;9.25;7.30;;;12.20;99.90;;;;;;5135787;27;20064;-72
2020/12/06 07:00:49;;;;;;;10.07;6.93;;;12.20;99.90;;;;;;5135165;27;20039;-72
2020/12/06 07:03:17;;;;;;;10.90;7.28;;;12.20;99.90;;;;;;5135202;27;20526;-74
2020/12/06 07:05:43;;;;;;;11.77;6.90;;;12.20;99.90;;;;;;5134866;27;20035;-75
2020/12/06 07:08:16;;;;;;;14.85;11.48;;;12.30;99.90;;;;;;5135258;27;20023;-67
2020/12/06 07:10:42;;;;;;;16.17;12.52;;;11.40;99.90;;;;;;5135463;27;20023;-68
2020/12/06 07:13:08;;;;;;;14.55;11.82;;;9.70;99.90;;;;;;5134910;27;20023;-68
2020/12/06 07:15:34;;;;;;;15.45;11.98;;;8.70;99.90;;;;;;5135311;27;20027;-68
2020/12/06 07:18:01;;;;;;;16.60;12.82;;;8.00;99.90;;;;;;5134970;27;20480;-68
2020/12/06 07:20:28;;;;;;;15.13;12.25;;;7.60;99.90;;;;;;5135027;27;20039;-69
2020/12/06 07:22:54;;;;;;;15.65;12.32;;;7.30;99.90;;;;;;5134805;27;20019;-69
2020/12/06 07:25:22;;;;;;;19.50;13.38;;;6.90;99.90;;;;;;5134837;27;20467;-70
2020/12/06 07:27:48;;;;;;;19.52;13.48;;;6.70;99.90;;;;;;5134539;27;20423;-69
2020/12/06 07:30:16;;;;;;;19.55;14.57;;;6.40;99.90;;;;;;5134960;27;20062;-70
2020/12/06 07:32:42;;;;;;;19.58;14.23;;;6.20;99.90;;;;;;5134724;27;20077;-68
2020/12/06 07:35:11;;;;;;;20.50;14.35;;;6.00;99.90;;;;;;5134706;27;20023;-69
2020/12/06 07:37:37;;;;;;;20.05;14.93;;;5.90;99.90;;;;;;5134738;27;20177;-71
2020/12/06 07:43:24;;;;;;;18.05;13.45;;;5.60;99.90;;;;;;5134944;27;20507;-68
2020/12/06 07:45:50;;;;;;;18.65;14.57;;;5.50;99.90;;;;;;5134491;27;20027;-67
2020/12/06 07:48:23;;;;;;;17.98;14.18;;;5.30;99.90;;;;;;5134531;27;20047;-68
2020/12/06 07:50:49;;;;;;;22.85;15.73;;;5.20;99.90;;;;;;5134533;27;20023;-67
2020/12/06 07:53:15;;;;;;;22.58;16.27;;;4.00;99.90;;;;;;5134746;27;20475;-68
2020/12/06 07:55:41;;;;;;;26.75;17.35;;;3.30;99.90;;;;;;5134825;27;20102;-68
2020/12/06 07:58:17;;;;;;;25.45;18.48;;;2.90;99.90;;;;;;5135782;27;20063;-71
2020/12/06 08:00:43;;;;;;;32.47;20.42;;;2.60;99.90;;;;;;5134539;27;20438;-69
2020/12/06 08:03:13;;;;;;;28.10;18.45;;;2.60;99.90;;;;;;5134569;27;20068;-69
2020/12/06 08:05:43;;;;;;;27.05;19.15;;;2.60;99.90;;;;;;5134537;27;20355;-71
2020/12/06 08:08:20;;;;;;;30.08;19.65;;;2.50;99.90;;;;;;5134278;27;20094;-70
2020/12/06 08:10:56;;;;;;;28.55;20.02;;;2.40;99.90;;;;;;5134133;27;20031;-69
2020/12/06 08:13:22;;;;;;;29.52;19.80;;;2.40;99.90;;;;;;5134216;27;20029;-74
2020/12/06 08:15:48;;;;;;;28.10;19.88;;;2.40;99.90;;;;;;5134064;27;20251;-73
2020/12/06 08:18:16;;;;;;;31.90;21.00;;;2.20;99.90;;;;;;5131969;27;20027;-72
2020/12/06 08:20:55;;;;;;;31.75;20.73;;;2.10;99.90;;;;;;5134029;27;20027;-73
2020/12/06 08:23:50;;;;;;;31.65;20.92;;;2.20;99.90;;;;;;5133858;27;20019;-70
2020/12/06 08:26:15;;;;;;;34.80;20.92;;;2.10;99.90;;;;;;5090826;28;20040;-70
2020/12/06 08:28:41;;;;;;;30.48;20.85;;;2.20;99.90;;;;;;5090965;28;20028;-70
2020/12/06 08:31:20;;;;;;;31.45;20.75;;;2.30;99.90;;;;;;5090695;28;20051;-70
2020/12/06 08:33:46;;;;;;;35.03;22.60;;;2.30;99.90;;;;;;5090807;28;20419;-74
2020/12/06 08:36:22;;;;;;;40.00;24.92;;;2.40;99.90;;;;;;5090499;28;20035;-74
2020/12/06 08:38:48;;;;;;;35.78;22.63;;;2.40;99.90;;;;;;5090543;28;20073;-76
2020/12/06 08:41:14;;;;;;;35.00;21.88;;;2.40;99.90;;;;;;5090628;28;20565;-75
2020/12/06 08:43:53;;;;;;;31.27;21.70;;;2.50;99.90;;;;;;5090566;28;20036;-74
2020/12/06 08:46:23;;;;;;;33.35;23.63;;;2.60;99.90;;;;;;5090487;28;20090;-74
2020/12/06 08:48:51;;;;;;;33.40;22.88;;;2.70;99.90;;;;;;5090188;28;20040;-74
2020/12/06 08:51:25;;;;;;;31.92;21.70;;;2.80;99.90;;;;;;5090464;28;20061;-74
2020/12/06 08:53:51;;;;;;;32.03;22.02;;;2.80;99.90;;;;;;5090365;28;20016;-74
2020/12/06 08:56:43;;;;;;;31.20;22.05;;;2.90;99.90;;;;;;5090373;28;20047;-75
2020/12/06 08:59:14;;;;;;;33.10;22.45;;;3.00;99.90;;;;;;5086943;28;20075;-77
2020/12/06 09:01:52;;;;;;;30.05;20.77;;;3.10;99.90;;;;;;5095030;28;20036;-74
2020/12/06 09:04:18;;;;;;;27.30;19.70;;;3.10;99.90;;;;;;5133319;27;20027;-75
2020/12/06 09:06:45;;;;;;;30.35;20.15;;;3.10;99.90;;;;;;5133317;27;20103;-73
2020/12/06 09:09:12;;;;;;;30.13;22.25;;;3.20;99.90;;;;;;5133660;27;20074;-72
2020/12/06 09:11:39;;;;;;;30.77;21.10;;;3.30;99.90;;;;;;5133297;28;20019;-73
2020/12/06 09:14:05;;;;;;;27.80;20.10;;;3.30;99.90;;;;;;5133519;27;20019;-74
2020/12/06 09:16:31;;;;;;;28.70;20.38;;;3.40;99.90;;;;;;5133175;27;20031;-74
2020/12/06 09:18:57;;;;;;;28.90;20.23;;;3.40;99.90;;;;;;5133088;27;20490;-72
2020/12/06 09:21:23;;;;;;;28.10;20.85;;;3.40;99.90;;;;;;5133224;27;20039;-74
2020/12/06 09:23:49;;;;;;;36.08;22.95;;;3.50;99.90;;;;;;5133044;27;20030;-68
2020/12/06 09:26:15;;;;;;;33.72;21.98;;;3.50;99.90;;;;;;5133464;27;20027;-73
2020/12/06 09:28:41;;;;;;;34.45;22.80;;;3.60;99.90;;;;;;5134768;27;20046;-71
2020/12/06 09:31:07;;;;;;;34.53;23.67;;;3.60;99.90;;;;;;5137184;27;20023;-72
2020/12/06 09:33:32;;;;;;;41.25;27.00;;;3.60;99.90;;;;;;5137283;27;20027;-71
2020/12/06 09:35:58;;;;;;;38.92;26.77;;;3.70;99.90;;;;;;5137475;27;20527;-72
2020/12/06 09:38:26;;;;;;;38.67;26.90;;;3.80;99.90;;;;;;5137201;27;20026;-72
2020/12/06 09:40:51;;;;;;;39.50;27.33;;;3.80;99.90;;;;;;5137487;27;20039;-72
2020/12/06 09:43:17;;;;;;;44.83;30.00;;;3.80;99.90;;;;;;5137087;27;20023;-71
2020/12/06 09:45:43;;;;;;;42.03;33.35;;;4.00;99.90;;;;;;5137281;27;20051;-72
2020/12/06 09:48:10;;;;;;;45.30;31.27;;;4.10;99.90;;;;;;5136862;27;20047;-73
2020/12/06 09:50:35;;;;;;;47.25;35.40;;;4.20;99.90;;;;;;5136899;27;20378;-73
2020/12/06 09:53:01;;;;;;;45.90;36.00;;;4.20;99.90;;;;;;5136832;27;20023;-71
2020/12/06 09:58:49;;;;;;;44.17;27.17;;;4.30;99.90;;;;;;5136971;27;20440;-72
2020/12/06 10:01:15;;;;;;;36.58;25.13;;;4.20;99.90;;;;;;5136602;27;20114;-71
2020/12/06 10:03:40;;;;;;;33.67;23.42;;;4.20;99.90;;;;;;5136658;27;20098;-71
2020/12/06 10:06:06;;;;;;;34.70;24.10;;;4.20;99.90;;;;;;5136593;27;20103;-72
2020/12/06 10:08:32;;;;;;;33.97;20.20;;;4.20;99.90;;;;;;5136605;27;20020;-71
2020/12/06 10:10:57;;;;;;;25.38;19.02;;;4.20;99.90;;;;;;5136412;27;20023;-71
2020/12/06 10:13:23;;;;;;;28.98;19.02;;;4.30;99.90;;;;;;5136587;27;20027;-72
2020/12/06 10:15:48;;;;;;;31.42;20.60;;;4.20;99.90;;;;;;5136611;27;20023;-72
2020/12/06 10:18:14;;;;;;;32.95;21.65;;;4.20;99.90;;;;;;5136246;27;20019;-72
2020/12/06 10:20:40;;;;;;;27.25;19.52;;;4.20;99.90;;;;;;5136296;27;20035;-73
2020/12/06 10:23:05;;;;;;;27.33;18.85;;;4.20;99.90;;;;;;5136281;27;20022;-73
2020/12/06 10:28:53;;;;;;;26.48;18.17;;;4.40;99.90;;;;;;5136393;27;20034;-73
2020/12/06 10:31:19;;;;;;;27.60;19.35;;;4.40;99.90;;;;;;5136053;27;20019;-70
2020/12/06 10:33:44;;;;;;;26.00;17.75;;;4.50;99.90;;;;;;5135816;27;20030;-73
2020/12/06 10:36:10;;;;;;;27.60;19.25;;;4.60;99.90;;;;;;5136073;27;20529;-73
2020/12/06 10:45:02;;;;;;;29.05;19.83;;;4.90;99.90;;;;;;5135928;27;20030;-71
2020/12/06 10:47:27;;;;;;;26.95;19.30;;;5.10;99.90;;;;;;5135521;27;20026;-71
2020/12/06 10:49:53;;;;;;;26.35;17.55;;;5.30;99.90;;;;;;5135779;27;20031;-70
2020/12/06 10:52:19;;;;;;;26.73;18.48;;;5.40;99.90;;;;;;5136044;27;20102;-71
2020/12/06 10:54:45;;;;;;;25.77;18.52;;;5.60;99.90;;;;;;5135545;27;20471;-69
2020/12/06 10:57:10;;;;;;;21.60;16.80;;;5.80;99.90;;;;;;5135610;27;20026;-71
2020/12/06 10:59:36;;;;;;;29.27;19.63;;;5.90;99.90;;;;;;5135557;27;20034;-72
2020/12/06 11:02:03;;;;;;;28.48;18.67;;;6.00;99.90;;;;;;5135769;27;20027;-71
2020/12/06 11:04:28;;;;;;;32.22;18.70;;;6.10;99.90;;;;;;5135671;27;20024;-72
2020/12/06 11:06:57;;;;;;;26.98;17.63;;;6.20;99.90;;;;;;5135478;27;20046;-72
2020/12/06 11:09:23;;;;;;;27.52;18.45;;;6.20;99.90;;;;;;5135385;27;20011;-72
2020/12/06 11:11:50;;;;;;;25.33;17.33;;;6.30;99.90;;;;;;5135396;27;20079;-72
2020/12/06 11:14:19;;;;;;;23.10;16.42;;;6.50;99.90;;;;;;5135082;27;20019;-73
2020/12/06 11:16:45;;;;;;;20.55;15.50;;;6.70;99.90;;;;;;5135179;27;20542;-71
2020/12/06 11:19:11;;;;;;;23.27;15.48;;;6.90;99.90;;;;;;5134874;27;20015;-71
2020/12/06 11:21:36;;;;;;;21.52;15.95;;;7.00;99.90;;;;;;5134968;27;20035;-72
2020/12/06 11:24:02;;;;;;;19.50;14.60;;;7.20;99.90;;;;;;5134766;27;20031;-73
2020/12/06 11:26:28;;;;;;;23.75;14.98;;;7.30;99.90;;;;;;5134707;27;20027;-73
2020/12/06 11:28:53;;;;;;;20.10;14.65;;;7.50;99.90;;;;;;5134930;27;20030;-74
2020/12/06 11:31:19;;;;;;;22.45;14.45;;;7.60;99.90;;;;;;5134647;27;20348;-71
2020/12/06 11:33:45;;;;;;;19.95;14.90;;;7.70;99.90;;;;;;5134478;27;20019;-73
2020/12/06 11:36:11;;;;;;;20.08;13.68;;;7.90;99.90;;;;;;5134579;27;20029;-72
2020/12/06 11:38:37;;;;;;;19.20;14.25;;;8.10;99.90;;;;;;5134323;27;20348;-72
2020/12/06 11:44:24;;;;;;;18.85;13.23;;;8.30;99.90;;;;;;5134589;27;20383;-72
2020/12/06 11:46:51;;;;;;;19.38;14.38;;;8.40;99.90;;;;;;5134183;27;20019;-71
2020/12/06 11:49:16;;;;;;;19.77;14.20;;;7.90;99.90;;;;;;5133946;27;20051;-71
2020/12/06 11:51:42;;;;;;;18.38;13.55;;;7.80;99.90;;;;;;5134046;27;20026;-73
2020/12/06 11:54:07;;;;;;;18.08;14.32;;;7.60;99.90;;;;;;5133963;27;20527;-73
2020/12/06 11:56:33;;;;;;;17.75;13.85;;;7.40;99.90;;;;;;5134044;27;20042;-72
2020/12/06 11:58:59;;;;;;;18.95;14.82;;;7.50;99.90;;;;;;5134068;27;20028;-74
2020/12/06 12:01:25;;;;;;;18.88;13.57;;;7.80;99.90;;;;;;5133959;27;20065;-73
2020/12/06 12:03:50;;;;;;;16.92;12.75;;;8.00;99.90;;;;;;5133840;27;20098;-72
2020/12/06 12:06:18;;;;;;;17.55;12.75;;;8.30;99.90;;;;;;5133801;27;20023;-70
2020/12/06 12:08:44;;;;;;;17.50;12.32;;;8.60;99.90;;;;;;5133827;27;20039;-72
2020/12/06 12:14:31;;;;;;;15.05;11.07;;;8.30;99.90;;;;;;5133980;27;20121;-73
2020/12/06 12:16:57;;;;;;;16.15;10.63;;;9.30;99.90;;;;;;5133590;27;20094;-73
2020/12/06 12:19:22;;;;;;;12.80;10.38;;;9.60;99.90;;;;;;5132318;27;20054;-73
2020/12/06 12:21:48;;;;;;;14.52;10.43;;;9.70;99.90;;;;;;5133565;27;20080;-75
2020/12/06 12:24:13;;;;;;;13.40;10.13;;;10.00;99.90;;;;;;5133566;27;20064;-70
2020/12/06 12:30:01;;;;;;;15.02;11.02;;;10.20;99.90;;;;;;5133827;27;20047;-72
2020/12/06 12:32:26;;;;;;;13.48;10.90;;;10.30;99.90;;;;;;5133514;27;20023;-72
2020/12/06 12:34:52;;;;;;;17.30;13.63;;;10.30;99.90;;;;;;5133462;27;20489;-71
2020/12/06 12:37:18;;;;;;;13.70;11.15;;;10.70;99.90;;;;;;5133598;27;20489;-73
2020/12/06 12:39:44;;;;;;;13.82;11.23;;;10.60;99.90;;;;;;5133040;27;20023;-72
2020/12/06 12:42:10;;;;;;;13.48;11.35;;;10.20;99.90;;;;;;5133347;27;20031;-73
2020/12/06 12:44:36;;;;;;;15.93;12.38;;;10.10;99.90;;;;;;5133329;27;20388;-74
2020/12/06 12:47:01;;;;;;;15.85;12.55;;;9.80;99.90;;;;;;5133594;27;20023;-77
2020/12/06 12:49:27;;;;;;;15.98;12.38;;;9.90;99.90;;;;;;5133151;27;20047;-77
2020/12/06 12:51:57;;;;;;;13.93;11.80;;;10.00;99.90;;;;;;5133278;27;20031;-78
2020/12/06 12:54:23;;;;;;;15.93;12.68;;;10.40;99.90;;;;;;5133254;27;20027;-77
2020/12/06 13:00:12;;;;;;;22.55;15.65;;;10.10;99.90;;;;;;5133287;27;20042;-82
2020/12/06 13:02:38;;;;;;;17.20;12.65;;;10.40;99.90;;;;;;5132793;27;20528;-73
2020/12/06 13:05:05;;;;;;;20.20;16.20;;;10.10;99.90;;;;;;5133131;27;20019;-71
2020/12/06 13:07:31;;;;;;;16.10;13.18;;;10.10;99.90;;;;;;5132927;27;20022;-70
2020/12/06 13:09:57;;;;;;;16.23;12.93;;;10.30;99.90;;;;;;5132834;27;20098;-70
2020/12/06 13:12:22;;;;;;;23.73;16.25;;;10.10;99.90;;;;;;5132035;28;20055;-70
2020/12/06 13:14:48;;;;;;;23.20;17.98;;;10.10;99.90;;;;;;5133116;27;20023;-70
2020/12/06 13:17:14;;;;;;;20.73;15.45;;;9.90;99.90;;;;;;5133151;27;20023;-73
2020/12/06 13:19:40;;;;;;;20.45;14.98;;;10.50;99.90;;;;;;5133183;27;20065;-71
2020/12/06 13:22:07;;;;;;;22.42;16.52;;;10.10;99.90;;;;;;5132638;27;20539;-70
2020/12/06 13:24:33;;;;;;;21.30;16.50;;;10.30;99.90;;;;;;5132853;27;20023;-69
2020/12/06 13:30:21;;;;;;;20.10;15.70;;;10.10;99.90;;;;;;5132928;28;20041;-70
2020/12/06 13:32:46;;;;;;;22.13;17.08;;;10.40;99.90;;;;;;5132766;27;20023;-72
2020/12/06 13:35:12;;;;;;;20.77;17.00;;;10.10;99.90;;;;;;5132944;28;20030;-71
2020/12/06 13:37:38;;;;;;;20.25;16.30;;;10.00;99.90;;;;;;5132827;27;20020;-79
2020/12/06 13:40:04;;;;;;;20.17;15.88;;;9.80;99.90;;;;;;5132416;27;20490;-75
2020/12/06 13:42:30;;;;;;;20.02;16.52;;;9.60;99.90;;;;;;5132897;27;20027;-69
2020/12/06 13:44:55;;;;;;;25.98;22.02;;;9.70;99.90;;;;;;5132780;27;20030;-73
2020/12/06 13:47:21;;;;;;;25.33;18.98;;;9.80;99.90;;;;;;5132690;27;20027;-78
2020/12/06 13:49:47;;;;;;;21.48;15.57;;;10.10;99.90;;;;;;5133014;27;20115;-76
2020/12/06 13:52:13;;;;;;;19.77;14.93;;;10.30;99.90;;;;;;5132714;27;20110;-71
2020/12/06 13:54:38;;;;;;;20.77;14.43;;;10.30;99.90;;;;;;5132689;28;20471;-70